Skip Navigation Links
NOAA logo - Click to go to the NOAA homepage
NOAA's National Weather Service
Alaska Aviation Weather Unit
  NWS logo - Click to go to the NWS homepage
Left Navbar Graphic     03 AKDT = 11 GMT

   
NOAA is celebrating 200 years of science, service, and stewardship. Visit the NOAA 200th celebration Web site to learn more.
USA.gov is the U.S. Government's official Web portal to all Federal, state and local government Web resources and services.
Facebook
NWS on Facebook

Important Change Regarding the AAWU Web Presence

 

Over the last several months, the AAWU has been working to navigate its webpages to a nationally supported server. Security, as well as other needs, have necessitated the change.  We have been given an extension for the site changeover while we diligently work at addressing feedback received. As of July 14, 2017, aawu.arh.noaa.gov will be discontinued. The new AAWU web address is weather.gov/aawu. It is now live and will run in-parallel with the old site until it is discontinued on July 14, 2017. Please continue to send any feedback or questions regarding the new webpages to nws.ar.aawu.webauthors@noaa.gov.  Thank you for your patience during this time of transition.
AAWU Home :: Display TAF Add Bookmark
METAR PAKV 230553Z AUTO 20003KT 10SM OVC043 11/06 A2977 RMK AO2 SLP084
     60000 T01060061 10167 20100 51002 TSNO=

METAR PAKV 230653Z AUTO 23006KT 10SM BKN044 OVC055 11/06 A2977 RMK AO2
     SLP083 T01060061 TSNO=

METAR PAKV 230753Z AUTO 26006KT 10SM -RA BKN037 OVC047 09/07 A2977 RMK
     AO2 RAB13 SLP084 P0001 T00940067 TSNO=

METAR PAKV 230853Z AUTO 22004KT 10SM SCT047 07/05 A2977 RMK AO2
 RAE19 SLP082 P0000 60001 T00720050 401670072 58003 TSNO=

METAR PAKV 230953Z AUTO 23003KT 10SM BKN050 07/05 A2976 RMK AO2 SLP079
     T00670050 TSNO=

METAR PAKV 231053Z AUTO 00000KT 10SM OVC050 07/05 A2976 RMK AO2
 SLP079 T00720050 TSNO=


NOAA's National Weather Service
Alaska Aviation Weather Unit
6930 Sand Lake Road
Anchorage, AK 99502-1845
Disclaimer
Credits
Glossary
Privacy Policy
About Us
Career Opportunities
Contact AAWU Internet Services Site last modified: April, 17th 2012